sensor_id;sensor_type;location;lat;lon;timestamp;temperature;humidity
53498;DHT22;39382;47.168;16.008;2023-12-14T00:00:27;3.20;99.90
53498;DHT22;39382;47.168;16.008;2023-12-14T00:02:52;3.20;99.90
53498;DHT22;39382;47.168;16.008;2023-12-14T00:05:18;3.20;99.90
53498;DHT22;39382;47.168;16.008;2023-12-14T00:07:43;3.20;99.90
53498;DHT22;39382;47.168;16.008;2023-12-14T00:10:09;3.20;99.90
53498;DHT22;39382;47.168;16.008;2023-12-14T00:12:35;3.20;99.90
53498;DHT22;39382;47.168;16.008;2023-12-14T00:15:00;3.20;99.90
53498;DHT22;39382;47.168;16.008;2023-12-14T00:17:26;3.30;99.90
53498;DHT22;39382;47.168;16.008;2023-12-14T00:19:52;3.30;99.90
53498;DHT22;39382;47.168;16.008;2023-12-14T00:22:17;3.20;99.90
53498;DHT22;39382;47.168;16.008;2023-12-14T00:24:43;3.20;99.90
53498;DHT22;39382;47.168;16.008;2023-12-14T00:27:08;3.30;99.90
53498;DHT22;39382;47.168;16.008;2023-12-14T00:29:34;3.30;99.90
53498;DHT22;39382;47.168;16.008;2023-12-14T00:31:59;3.20;99.90
53498;DHT22;39382;47.168;16.008;2023-12-14T00:34:25;3.20;99.90
53498;DHT22;39382;47.168;16.008;2023-12-14T00:36:51;3.20;99.90
53498;DHT22;39382;47.168;16.008;2023-12-14T00:39:16;3.30;99.90
53498;DHT22;39382;47.168;16.008;2023-12-14T00:41:42;3.20;99.90
53498;DHT22;39382;47.168;16.008;2023-12-14T00:44:07;3.30;99.90
53498;DHT22;39382;47.168;16.008;2023-12-14T00:46:33;3.30;99.90
53498;DHT22;39382;47.168;16.008;2023-12-14T00:48:59;3.30;99.90
53498;DHT22;39382;47.168;16.008;2023-12-14T00:51:24;3.40;99.90
53498;DHT22;39382;47.168;16.008;2023-12-14T00:53:50;3.30;99.90
53498;DHT22;39382;47.168;16.008;2023-12-14T00:56:15;3.20;99.90
53498;DHT22;39382;47.168;16.008;2023-12-14T00:58:41;3.30;99.90
53498;DHT22;39382;47.168;16.008;2023-12-14T01:01:06;3.30;99.90
53498;DHT22;39382;47.168;16.008;2023-12-14T01:03:32;3.30;99.90
53498;DHT22;39382;47.168;16.008;2023-12-14T01:05:58;3.30;99.90
53498;DHT22;39382;47.168;16.008;2023-12-14T01:08:23;3.30;99.90
53498;DHT22;39382;47.168;16.008;2023-12-14T01:10:49;3.30;99.90
53498;DHT22;39382;47.168;16.008;2023-12-14T01:13:15;3.30;99.90
53498;DHT22;39382;47.168;16.008;2023-12-14T01:15:40;3.30;99.90
53498;DHT22;39382;47.168;16.008;2023-12-14T01:18:06;3.40;99.90
53498;DHT22;39382;47.168;16.008;2023-12-14T01:20:32;3.40;99.90
53498;DHT22;39382;47.168;16.008;2023-12-14T01:22:57;3.40;99.90
53498;DHT22;39382;47.168;16.008;2023-12-14T01:25:23;3.40;99.90
53498;DHT22;39382;47.168;16.008;2023-12-14T01:27:48;3.30;99.90
53498;DHT22;39382;47.168;16.008;2023-12-14T01:30:14;3.30;99.90
53498;DHT22;39382;47.168;16.008;2023-12-14T01:32:40;3.30;99.90
53498;DHT22;39382;47.168;16.008;2023-12-14T01:35:05;3.30;99.90
53498;DHT22;39382;47.168;16.008;2023-12-14T01:37:31;3.30;99.90
53498;DHT22;39382;47.168;16.008;2023-12-14T01:39:57;3.30;99.90
53498;DHT22;39382;47.168;16.008;2023-12-14T01:42:22;3.30;99.90
53498;DHT22;39382;47.168;16.008;2023-12-14T01:44:48;3.30;99.90
53498;DHT22;39382;47.168;16.008;2023-12-14T01:47:13;3.30;99.90
53498;DHT22;39382;47.168;16.008;2023-12-14T01:49:39;3.30;99.90
53498;DHT22;39382;47.168;16.008;2023-12-14T01:52:06;3.30;99.90
53498;DHT22;39382;47.168;16.008;2023-12-14T01:54:32;3.40;99.90
53498;DHT22;39382;47.168;16.008;2023-12-14T01:56:59;3.40;99.90
53498;DHT22;39382;47.168;16.008;2023-12-14T01:59:24;3.50;99.90
53498;DHT22;39382;47.168;16.008;2023-12-14T02:01:54;3.50;99.90
53498;DHT22;39382;47.168;16.008;2023-12-14T02:04:23;3.50;99.90
53498;DHT22;39382;47.168;16.008;2023-12-14T02:06:49;3.40;99.90
53498;DHT22;39382;47.168;16.008;2023-12-14T02:09:14;3.40;99.90
53498;DHT22;39382;47.168;16.008;2023-12-14T02:11:40;3.50;99.90
53498;DHT22;39382;47.168;16.008;2023-12-14T02:14:08;3.40;99.90
53498;DHT22;39382;47.168;16.008;2023-12-14T02:16:34;3.40;99.90
53498;DHT22;39382;47.168;16.008;2023-12-14T02:19:00;3.40;99.90
53498;DHT22;39382;47.168;16.008;2023-12-14T02:21:25;3.50;99.90
53498;DHT22;39382;47.168;16.008;2023-12-14T02:23:51;3.50;99.90
53498;DHT22;39382;47.168;16.008;2023-12-14T02:26:17;3.50;99.90
53498;DHT22;39382;47.168;16.008;2023-12-14T02:28:42;3.50;99.90
53498;DHT22;39382;47.168;16.008;2023-12-14T02:31:08;3.50;99.90
53498;DHT22;39382;47.168;16.008;2023-12-14T02:33:33;3.40;99.90
53498;DHT22;39382;47.168;16.008;2023-12-14T02:35:59;3.40;99.90
53498;DHT22;39382;47.168;16.008;2023-12-14T02:38:25;3.40;99.90
53498;DHT22;39382;47.168;16.008;2023-12-14T02:40:51;3.50;99.90
53498;DHT22;39382;47.168;16.008;2023-12-14T02:43:20;3.40;99.90
53498;DHT22;39382;47.168;16.008;2023-12-14T02:45:46;3.40;99.90
53498;DHT22;39382;47.168;16.008;2023-12-14T02:48:12;3.40;99.90
53498;DHT22;39382;47.168;16.008;2023-12-14T02:50:38;3.40;99.90
53498;DHT22;39382;47.168;16.008;2023-12-14T02:53:04;3.40;99.90
53498;DHT22;39382;47.168;16.008;2023-12-14T02:55:29;3.30;99.90
53498;DHT22;39382;47.168;16.008;2023-12-14T02:57:55;3.30;99.90
53498;DHT22;39382;47.168;16.008;2023-12-14T03:00:20;3.30;99.90
53498;DHT22;39382;47.168;16.008;2023-12-14T03:02:46;3.40;99.90
53498;DHT22;39382;47.168;16.008;2023-12-14T03:05:12;3.40;99.90
53498;DHT22;39382;47.168;16.008;2023-12-14T03:07:37;3.40;99.90
53498;DHT22;39382;47.168;16.008;2023-12-14T03:10:03;3.40;99.90
53498;DHT22;39382;47.168;16.008;2023-12-14T03:12:29;3.40;99.90
53498;DHT22;39382;47.168;16.008;2023-12-14T03:14:55;3.40;99.90
53498;DHT22;39382;47.168;16.008;2023-12-14T03:17:20;3.40;99.90
53498;DHT22;39382;47.168;16.008;2023-12-14T03:19:46;3.40;99.90
53498;DHT22;39382;47.168;16.008;2023-12-14T03:22:12;3.40;99.90
53498;DHT22;39382;47.168;16.008;2023-12-14T03:24:38;3.50;99.90
53498;DHT22;39382;47.168;16.008;2023-12-14T03:27:04;3.50;99.90
53498;DHT22;39382;47.168;16.008;2023-12-14T03:29:30;3.50;99.90
53498;DHT22;39382;47.168;16.008;2023-12-14T03:31:56;3.50;99.90
53498;DHT22;39382;47.168;16.008;2023-12-14T03:34:22;3.60;99.90
53498;DHT22;39382;47.168;16.008;2023-12-14T03:36:47;3.40;99.90
53498;DHT22;39382;47.168;16.008;2023-12-14T03:39:13;3.40;99.90
53498;DHT22;39382;47.168;16.008;2023-12-14T03:41:38;3.50;99.90
53498;DHT22;39382;47.168;16.008;2023-12-14T03:44:04;3.50;99.90
53498;DHT22;39382;47.168;16.008;2023-12-14T03:46:30;3.50;99.90
53498;DHT22;39382;47.168;16.008;2023-12-14T03:48:56;3.50;99.90
53498;DHT22;39382;47.168;16.008;2023-12-14T03:51:22;3.50;99.90
53498;DHT22;39382;47.168;16.008;2023-12-14T03:53:47;3.50;99.90
53498;DHT22;39382;47.168;16.008;2023-12-14T03:56:13;3.50;99.90
53498;DHT22;39382;47.168;16.008;2023-12-14T03:58:39;3.60;99.90
53498;DHT22;39382;47.168;16.008;2023-12-14T04:01:04;3.60;99.90
53498;DHT22;39382;47.168;16.008;2023-12-14T04:03:30;3.60;99.90
53498;DHT22;39382;47.168;16.008;2023-12-14T04:05:56;3.60;99.90
53498;DHT22;39382;47.168;16.008;2023-12-14T04:08:21;3.60;99.90
53498;DHT22;39382;47.168;16.008;2023-12-14T04:10:47;3.60;99.90
53498;DHT22;39382;47.168;16.008;2023-12-14T04:13:12;3.60;99.90
53498;DHT22;39382;47.168;16.008;2023-12-14T04:15:38;3.90;99.90
53498;DHT22;39382;47.168;16.008;2023-12-14T04:18:06;3.70;99.90
53498;DHT22;39382;47.168;16.008;2023-12-14T04:20:32;3.60;99.90
53498;DHT22;39382;47.168;16.008;2023-12-14T04:22:57;3.60;99.90
53498;DHT22;39382;47.168;16.008;2023-12-14T04:25:23;3.70;99.90
53498;DHT22;39382;47.168;16.008;2023-12-14T04:27:48;3.70;99.90
53498;DHT22;39382;47.168;16.008;2023-12-14T04:30:14;3.60;99.90
53498;DHT22;39382;47.168;16.008;2023-12-14T04:32:40;3.70;99.90
53498;DHT22;39382;47.168;16.008;2023-12-14T04:35:06;3.70;99.90
53498;DHT22;39382;47.168;16.008;2023-12-14T04:37:32;3.70;99.90
53498;DHT22;39382;47.168;16.008;2023-12-14T04:39:57;3.60;99.90
53498;DHT22;39382;47.168;16.008;2023-12-14T04:42:23;3.70;99.90
53498;DHT22;39382;47.168;16.008;2023-12-14T04:44:49;3.60;99.90
53498;DHT22;39382;47.168;16.008;2023-12-14T04:47:14;3.60;99.90
53498;DHT22;39382;47.168;16.008;2023-12-14T04:49:40;3.60;99.90
53498;DHT22;39382;47.168;16.008;2023-12-14T04:52:06;3.60;99.90
53498;DHT22;39382;47.168;16.008;2023-12-14T04:54:33;3.50;99.90
53498;DHT22;39382;47.168;16.008;2023-12-14T04:57:00;3.60;99.90
53498;DHT22;39382;47.168;16.008;2023-12-14T04:59:26;3.60;99.90
53498;DHT22;39382;47.168;16.008;2023-12-14T05:01:52;3.60;99.90
53498;DHT22;39382;47.168;16.008;2023-12-14T05:04:17;3.60;99.90
53498;DHT22;39382;47.168;16.008;2023-12-14T05:06:43;3.60;99.90
53498;DHT22;39382;47.168;16.008;2023-12-14T05:09:09;3.60;99.90
53498;DHT22;39382;47.168;16.008;2023-12-14T05:11:36;3.60;99.90
53498;DHT22;39382;47.168;16.008;2023-12-14T05:14:02;3.60;99.90
53498;DHT22;39382;47.168;16.008;2023-12-14T05:16:28;3.50;99.90
53498;DHT22;39382;47.168;16.008;2023-12-14T05:18:54;3.60;99.90
53498;DHT22;39382;47.168;16.008;2023-12-14T05:21:20;3.60;99.90
53498;DHT22;39382;47.168;16.008;2023-12-14T05:23:45;3.60;99.90
53498;DHT22;39382;47.168;16.008;2023-12-14T05:26:11;3.50;99.90
53498;DHT22;39382;47.168;16.008;2023-12-14T05:28:36;3.60;99.90
53498;DHT22;39382;47.168;16.008;2023-12-14T05:31:02;3.70;99.90
53498;DHT22;39382;47.168;16.008;2023-12-14T05:33:28;3.70;99.90
53498;DHT22;39382;47.168;16.008;2023-12-14T05:35:54;3.70;99.90
53498;DHT22;39382;47.168;16.008;2023-12-14T05:38:19;3.70;99.90
53498;DHT22;39382;47.168;16.008;2023-12-14T05:40:45;3.70;99.90
53498;DHT22;39382;47.168;16.008;2023-12-14T05:43:11;3.70;99.90
53498;DHT22;39382;47.168;16.008;2023-12-14T05:45:36;3.70;99.90
53498;DHT22;39382;47.168;16.008;2023-12-14T05:48:02;3.70;99.90
53498;DHT22;39382;47.168;16.008;2023-12-14T05:50:31;3.60;99.90
53498;DHT22;39382;47.168;16.008;2023-12-14T05:52:56;3.60;99.90
53498;DHT22;39382;47.168;16.008;2023-12-14T05:55:22;3.70;99.90
53498;DHT22;39382;47.168;16.008;2023-12-14T05:57:48;3.60;99.90
53498;DHT22;39382;47.168;16.008;2023-12-14T06:00:14;3.60;99.90
53498;DHT22;39382;47.168;16.008;2023-12-14T06:02:41;3.60;99.90
53498;DHT22;39382;47.168;16.008;2023-12-14T06:05:07;3.50;99.90
53498;DHT22;39382;47.168;16.008;2023-12-14T06:07:33;3.50;99.90
53498;DHT22;39382;47.168;16.008;2023-12-14T06:09:59;3.50;99.90
53498;DHT22;39382;47.168;16.008;2023-12-14T06:12:26;3.50;99.90
53498;DHT22;39382;47.168;16.008;2023-12-14T06:14:52;3.50;99.90
53498;DHT22;39382;47.168;16.008;2023-12-14T06:17:18;3.60;99.90
53498;DHT22;39382;47.168;16.008;2023-12-14T06:19:43;4.10;99.90
53498;DHT22;39382;47.168;16.008;2023-12-14T06:22:09;4.00;99.90
53498;DHT22;39382;47.168;16.008;2023-12-14T06:24:34;3.70;99.90
53498;DHT22;39382;47.168;16.008;2023-12-14T06:27:00;3.70;99.90
53498;DHT22;39382;47.168;16.008;2023-12-14T06:29:26;3.60;99.90
53498;DHT22;39382;47.168;16.008;2023-12-14T06:31:51;3.50;99.90
53498;DHT22;39382;47.168;16.008;2023-12-14T06:34:17;3.50;99.90
53498;DHT22;39382;47.168;16.008;2023-12-14T06:36:44;3.50;99.90
53498;DHT22;39382;47.168;16.008;2023-12-14T06:39:10;3.40;99.90
53498;DHT22;39382;47.168;16.008;2023-12-14T06:41:36;3.50;99.90
53498;DHT22;39382;47.168;16.008;2023-12-14T06:44:02;3.50;99.90
53498;DHT22;39382;47.168;16.008;2023-12-14T06:46:29;3.50;99.90
53498;DHT22;39382;47.168;16.008;2023-12-14T06:48:54;3.40;99.90
53498;DHT22;39382;47.168;16.008;2023-12-14T06:51:21;3.40;99.90
53498;DHT22;39382;47.168;16.008;2023-12-14T06:53:48;3.30;99.90
53498;DHT22;39382;47.168;16.008;2023-12-14T06:56:14;3.30;99.90
53498;DHT22;39382;47.168;16.008;2023-12-14T06:58:41;3.30;99.90
53498;DHT22;39382;47.168;16.008;2023-12-14T07:01:08;3.40;99.90
53498;DHT22;39382;47.168;16.008;2023-12-14T07:03:33;3.40;99.90
53498;DHT22;39382;47.168;16.008;2023-12-14T07:05:59;3.40;99.90
53498;DHT22;39382;47.168;16.008;2023-12-14T07:08:25;3.40;99.90
53498;DHT22;39382;47.168;16.008;2023-12-14T07:10:50;3.40;99.90
53498;DHT22;39382;47.168;16.008;2023-12-14T07:13:16;3.40;99.90
53498;DHT22;39382;47.168;16.008;2023-12-14T07:15:42;3.40;99.90
53498;DHT22;39382;47.168;16.008;2023-12-14T07:18:07;3.50;99.90
53498;DHT22;39382;47.168;16.008;2023-12-14T07:20:33;3.50;99.90
53498;DHT22;39382;47.168;16.008;2023-12-14T07:22:58;3.50;99.90
53498;DHT22;39382;47.168;16.008;2023-12-14T07:25:24;3.50;99.90
53498;DHT22;39382;47.168;16.008;2023-12-14T07:27:50;3.50;99.90
53498;DHT22;39382;47.168;16.008;2023-12-14T07:30:16;3.60;99.90
53498;DHT22;39382;47.168;16.008;2023-12-14T07:32:42;3.70;99.90
53498;DHT22;39382;47.168;16.008;2023-12-14T07:35:07;3.60;99.90
53498;DHT22;39382;47.168;16.008;2023-12-14T07:37:33;3.70;99.90
53498;DHT22;39382;47.168;16.008;2023-12-14T07:39:59;3.60;99.90
53498;DHT22;39382;47.168;16.008;2023-12-14T07:42:25;3.70;99.90
53498;DHT22;39382;47.168;16.008;2023-12-14T07:44:51;3.60;99.90
53498;DHT22;39382;47.168;16.008;2023-12-14T07:47:17;3.70;99.90
53498;DHT22;39382;47.168;16.008;2023-12-14T07:49:42;3.70;99.90
53498;DHT22;39382;47.168;16.008;2023-12-14T07:52:08;3.70;99.90
53498;DHT22;39382;47.168;16.008;2023-12-14T07:54:35;3.60;99.90
53498;DHT22;39382;47.168;16.008;2023-12-14T07:57:01;3.60;99.90
53498;DHT22;39382;47.168;16.008;2023-12-14T07:59:26;3.60;99.90
53498;DHT22;39382;47.168;16.008;2023-12-14T08:01:52;3.70;99.90
53498;DHT22;39382;47.168;16.008;2023-12-14T08:04:18;3.70;99.90
53498;DHT22;39382;47.168;16.008;2023-12-14T08:06:43;3.70;99.90
53498;DHT22;39382;47.168;16.008;2023-12-14T08:09:09;3.70;99.90
53498;DHT22;39382;47.168;16.008;2023-12-14T08:11:34;3.80;99.90
53498;DHT22;39382;47.168;16.008;2023-12-14T08:14:00;4.80;99.90
53498;DHT22;39382;47.168;16.008;2023-12-14T08:16:27;4.50;99.90
53498;DHT22;39382;47.168;16.008;2023-12-14T08:18:52;4.20;99.90
53498;DHT22;39382;47.168;16.008;2023-12-14T08:21:19;4.10;99.90
53498;DHT22;39382;47.168;16.008;2023-12-14T08:23:44;4.00;99.90
53498;DHT22;39382;47.168;16.008;2023-12-14T08:26:10;4.00;99.90
53498;DHT22;39382;47.168;16.008;2023-12-14T08:28:41;4.00;99.90
53498;DHT22;39382;47.168;16.008;2023-12-14T08:31:07;4.20;99.90
53498;DHT22;39382;47.168;16.008;2023-12-14T08:33:34;4.20;99.90
53498;DHT22;39382;47.168;16.008;2023-12-14T08:36:00;4.30;99.90
53498;DHT22;39382;47.168;16.008;2023-12-14T08:38:26;4.40;99.90
53498;DHT22;39382;47.168;16.008;2023-12-14T08:40:51;4.40;99.90
53498;DHT22;39382;47.168;16.008;2023-12-14T08:43:17;4.40;99.90
53498;DHT22;39382;47.168;16.008;2023-12-14T08:45:42;4.50;99.90
53498;DHT22;39382;47.168;16.008;2023-12-14T08:48:08;4.60;99.90
53498;DHT22;39382;47.168;16.008;2023-12-14T08:50:34;4.60;99.90
53498;DHT22;39382;47.168;16.008;2023-12-14T08:52:59;4.70;99.90
53498;DHT22;39382;47.168;16.008;2023-12-14T08:55:25;4.80;99.90
53498;DHT22;39382;47.168;16.008;2023-12-14T08:57:52;4.90;99.90
53498;DHT22;39382;47.168;16.008;2023-12-14T09:00:18;5.40;99.90
53498;DHT22;39382;47.168;16.008;2023-12-14T09:02:45;5.10;99.90
53498;DHT22;39382;47.168;16.008;2023-12-14T09:05:12;5.20;99.90
53498;DHT22;39382;47.168;16.008;2023-12-14T09:07:38;5.20;99.90
53498;DHT22;39382;47.168;16.008;2023-12-14T09:10:04;5.30;99.90
53498;DHT22;39382;47.168;16.008;2023-12-14T09:12:30;5.30;99.90
53498;DHT22;39382;47.168;16.008;2023-12-14T09:14:55;5.30;99.90
53498;DHT22;39382;47.168;16.008;2023-12-14T09:17:21;5.40;99.90
53498;DHT22;39382;47.168;16.008;2023-12-14T09:19:47;5.40;99.90
53498;DHT22;39382;47.168;16.008;2023-12-14T09:22:12;5.50;99.90
53498;DHT22;39382;47.168;16.008;2023-12-14T09:24:38;5.50;99.90
53498;DHT22;39382;47.168;16.008;2023-12-14T09:27:04;5.60;99.90
53498;DHT22;39382;47.168;16.008;2023-12-14T09:29:29;5.70;99.90
53498;DHT22;39382;47.168;16.008;2023-12-14T09:31:55;5.90;99.90
53498;DHT22;39382;47.168;16.008;2023-12-14T09:34:21;6.10;99.90
53498;DHT22;39382;47.168;16.008;2023-12-14T09:36:46;6.20;99.90
53498;DHT22;39382;47.168;16.008;2023-12-14T09:39:12;6.30;99.90
53498;DHT22;39382;47.168;16.008;2023-12-14T09:41:38;6.50;99.90
53498;DHT22;39382;47.168;16.008;2023-12-14T09:44:05;6.70;99.90
53498;DHT22;39382;47.168;16.008;2023-12-14T09:46:34;6.90;99.90
53498;DHT22;39382;47.168;16.008;2023-12-14T09:49:01;7.00;99.90
53498;DHT22;39382;47.168;16.008;2023-12-14T09:51:27;7.10;99.90
53498;DHT22;39382;47.168;16.008;2023-12-14T09:53:53;7.20;99.90
53498;DHT22;39382;47.168;16.008;2023-12-14T09:56:24;7.20;99.90
53498;DHT22;39382;47.168;16.008;2023-12-14T09:58:50;7.20;99.90
53498;DHT22;39382;47.168;16.008;2023-12-14T10:01:26;7.30;99.90
53498;DHT22;39382;47.168;16.008;2023-12-14T10:04:10;7.40;99.90
53498;DHT22;39382;47.168;16.008;2023-12-14T10:06:36;7.50;99.90
53498;DHT22;39382;47.168;16.008;2023-12-14T10:09:02;7.60;99.90
53498;DHT22;39382;47.168;16.008;2023-12-14T10:11:29;7.80;99.90
53498;DHT22;39382;47.168;16.008;2023-12-14T10:13:54;7.90;99.90
53498;DHT22;39382;47.168;16.008;2023-12-14T10:16:28;8.00;99.90
53498;DHT22;39382;47.168;16.008;2023-12-14T10:18:56;8.10;99.90
53498;DHT22;39382;47.168;16.008;2023-12-14T10:21:23;8.20;99.90
53498;DHT22;39382;47.168;16.008;2023-12-14T10:23:49;8.20;99.90
53498;DHT22;39382;47.168;16.008;2023-12-14T10:26:15;8.20;99.90
53498;DHT22;39382;47.168;16.008;2023-12-14T10:28:40;8.30;99.90
53498;DHT22;39382;47.168;16.008;2023-12-14T10:31:07;8.50;99.90
53498;DHT22;39382;47.168;16.008;2023-12-14T10:33:33;8.40;99.90
53498;DHT22;39382;47.168;16.008;2023-12-14T10:36:00;8.40;99.90
53498;DHT22;39382;47.168;16.008;2023-12-14T10:38:25;8.50;99.90
53498;DHT22;39382;47.168;16.008;2023-12-14T10:40:53;8.40;99.90
53498;DHT22;39382;47.168;16.008;2023-12-14T10:43:20;8.50;99.90
53498;DHT22;39382;47.168;16.008;2023-12-14T10:45:46;8.60;99.90
53498;DHT22;39382;47.168;16.008;2023-12-14T10:48:17;8.60;99.90
53498;DHT22;39382;47.168;16.008;2023-12-14T10:50:46;8.60;99.90
53498;DHT22;39382;47.168;16.008;2023-12-14T10:53:13;8.60;99.90
53498;DHT22;39382;47.168;16.008;2023-12-14T10:55:44;8.60;99.90
53498;DHT22;39382;47.168;16.008;2023-12-14T10:58:10;8.70;99.90
53498;DHT22;39382;47.168;16.008;2023-12-14T11:00:37;8.70;99.90
53498;DHT22;39382;47.168;16.008;2023-12-14T11:03:04;8.70;99.90
53498;DHT22;39382;47.168;16.008;2023-12-14T11:05:32;8.70;99.90
53498;DHT22;39382;47.168;16.008;2023-12-14T11:08:03;8.60;99.90
53498;DHT22;39382;47.168;16.008;2023-12-14T11:10:54;8.70;99.90
53498;DHT22;39382;47.168;16.008;2023-12-14T11:13:21;8.70;99.90
53498;DHT22;39382;47.168;16.008;2023-12-14T11:15:52;8.70;99.90
53498;DHT22;39382;47.168;16.008;2023-12-14T11:20:49;8.80;99.90
53498;DHT22;39382;47.168;16.008;2023-12-14T11:23:36;8.90;99.90
53498;DHT22;39382;47.168;16.008;2023-12-14T11:26:03;9.00;99.90
53498;DHT22;39382;47.168;16.008;2023-12-14T11:28:34;9.20;99.90
53498;DHT22;39382;47.168;16.008;2023-12-14T11:31:01;9.20;99.90
53498;DHT22;39382;47.168;16.008;2023-12-14T11:33:27;9.20;99.90
53498;DHT22;39382;47.168;16.008;2023-12-14T11:35:54;9.30;99.90
53498;DHT22;39382;47.168;16.008;2023-12-14T11:38:21;9.40;99.90
53498;DHT22;39382;47.168;16.008;2023-12-14T11:40:49;9.50;99.90
53498;DHT22;39382;47.168;16.008;2023-12-14T11:43:15;9.50;99.90
53498;DHT22;39382;47.168;16.008;2023-12-14T11:45:41;9.30;99.90
53498;DHT22;39382;47.168;16.008;2023-12-14T11:48:08;9.40;99.90
53498;DHT22;39382;47.168;16.008;2023-12-14T11:50:40;9.30;99.90
53498;DHT22;39382;47.168;16.008;2023-12-14T11:53:06;9.40;99.90
53498;DHT22;39382;47.168;16.008;2023-12-14T11:55:34;9.40;99.90
53498;DHT22;39382;47.168;16.008;2023-12-14T11:58:00;9.40;99.90
53498;DHT22;39382;47.168;16.008;2023-12-14T12:00:29;9.50;99.90
53498;DHT22;39382;47.168;16.008;2023-12-14T12:03:16;9.60;99.90
53498;DHT22;39382;47.168;16.008;2023-12-14T12:05:44;9.70;99.90
53498;DHT22;39382;47.168;16.008;2023-12-14T12:08:10;9.80;99.90
53498;DHT22;39382;47.168;16.008;2023-12-14T12:10:37;9.80;99.90
53498;DHT22;39382;47.168;16.008;2023-12-14T12:13:05;9.90;99.90
53498;DHT22;39382;47.168;16.008;2023-12-14T12:15:32;10.00;99.90
53498;DHT22;39382;47.168;16.008;2023-12-14T12:18:08;10.10;99.90
53498;DHT22;39382;47.168;16.008;2023-12-14T12:20:34;10.10;99.90
53498;DHT22;39382;47.168;16.008;2023-12-14T12:23:00;10.00;99.90
53498;DHT22;39382;47.168;16.008;2023-12-14T12:25:27;10.00;99.90
53498;DHT22;39382;47.168;16.008;2023-12-14T12:27:57;10.10;99.90
53498;DHT22;39382;47.168;16.008;2023-12-14T12:30:23;10.20;99.90
53498;DHT22;39382;47.168;16.008;2023-12-14T12:32:49;10.40;99.90
53498;DHT22;39382;47.168;16.008;2023-12-14T12:35:20;10.50;99.90
53498;DHT22;39382;47.168;16.008;2023-12-14T12:37:46;10.50;99.90
53498;DHT22;39382;47.168;16.008;2023-12-14T12:40:12;10.40;99.90
53498;DHT22;39382;47.168;16.008;2023-12-14T12:42:38;10.30;99.90
53498;DHT22;39382;47.168;16.008;2023-12-14T12:45:04;10.30;99.90
53498;DHT22;39382;47.168;16.008;2023-12-14T12:47:30;10.20;99.90
53498;DHT22;39382;47.168;16.008;2023-12-14T12:49:56;10.20;99.90
53498;DHT22;39382;47.168;16.008;2023-12-14T12:52:22;10.30;99.90
53498;DHT22;39382;47.168;16.008;2023-12-14T12:54:47;10.20;99.90
53498;DHT22;39382;47.168;16.008;2023-12-14T12:57:13;10.10;99.90
53498;DHT22;39382;47.168;16.008;2023-12-14T12:59:38;10.10;99.90
53498;DHT22;39382;47.168;16.008;2023-12-14T13:02:05;9.80;99.90
53498;DHT22;39382;47.168;16.008;2023-12-14T13:04:30;9.70;99.90
53498;DHT22;39382;47.168;16.008;2023-12-14T13:06:57;9.60;99.90
53498;DHT22;39382;47.168;16.008;2023-12-14T13:09:23;9.50;99.90
53498;DHT22;39382;47.168;16.008;2023-12-14T13:11:48;9.40;99.90
53498;DHT22;39382;47.168;16.008;2023-12-14T13:14:15;9.20;99.90
53498;DHT22;39382;47.168;16.008;2023-12-14T13:16:41;9.10;99.90
53498;DHT22;39382;47.168;16.008;2023-12-14T13:19:08;9.00;99.90
53498;DHT22;39382;47.168;16.008;2023-12-14T13:21:33;8.90;99.90
53498;DHT22;39382;47.168;16.008;2023-12-14T13:23:59;8.80;99.90
53498;DHT22;39382;47.168;16.008;2023-12-14T13:26:25;8.80;99.90
53498;DHT22;39382;47.168;16.008;2023-12-14T13:28:52;8.70;99.90
53498;DHT22;39382;47.168;16.008;2023-12-14T13:31:19;8.60;99.90
53498;DHT22;39382;47.168;16.008;2023-12-14T13:33:46;8.50;99.90
53498;DHT22;39382;47.168;16.008;2023-12-14T13:36:12;8.50;99.90
53498;DHT22;39382;47.168;16.008;2023-12-14T13:38:38;8.40;99.90
53498;DHT22;39382;47.168;16.008;2023-12-14T13:41:04;8.40;99.90
53498;DHT22;39382;47.168;16.008;2023-12-14T13:43:31;8.30;99.90
53498;DHT22;39382;47.168;16.008;2023-12-14T13:45:56;8.30;99.90
53498;DHT22;39382;47.168;16.008;2023-12-14T13:48:27;8.20;99.90
53498;DHT22;39382;47.168;16.008;2023-12-14T13:50:54;8.10;99.90
53498;DHT22;39382;47.168;16.008;2023-12-14T13:53:20;8.00;99.90
53498;DHT22;39382;47.168;16.008;2023-12-14T13:55:46;7.90;99.90
53498;DHT22;39382;47.168;16.008;2023-12-14T13:58:12;7.80;99.90
53498;DHT22;39382;47.168;16.008;2023-12-14T14:00:38;7.70;99.90
53498;DHT22;39382;47.168;16.008;2023-12-14T14:03:04;7.60;99.90
53498;DHT22;39382;47.168;16.008;2023-12-14T14:05:31;7.50;99.90
53498;DHT22;39382;47.168;16.008;2023-12-14T14:07:57;7.40;99.90
53498;DHT22;39382;47.168;16.008;2023-12-14T14:10:23;7.40;99.90
53498;DHT22;39382;47.168;16.008;2023-12-14T14:12:49;7.20;99.90
53498;DHT22;39382;47.168;16.008;2023-12-14T14:15:15;7.10;99.90
53498;DHT22;39382;47.168;16.008;2023-12-14T14:17:41;7.20;99.90
53498;DHT22;39382;47.168;16.008;2023-12-14T14:20:07;8.30;99.90
53498;DHT22;39382;47.168;16.008;2023-12-14T14:22:34;8.70;99.90
53498;DHT22;39382;47.168;16.008;2023-12-14T14:25:00;8.60;99.90
53498;DHT22;39382;47.168;16.008;2023-12-14T14:27:25;8.30;99.90
53498;DHT22;39382;47.168;16.008;2023-12-14T14:29:51;7.90;99.90
53498;DHT22;39382;47.168;16.008;2023-12-14T14:32:22;7.50;99.90
53498;DHT22;39382;47.168;16.008;2023-12-14T14:34:47;7.40;99.90
53498;DHT22;39382;47.168;16.008;2023-12-14T14:37:13;7.30;99.90
53498;DHT22;39382;47.168;16.008;2023-12-14T14:39:39;7.00;99.90
53498;DHT22;39382;47.168;16.008;2023-12-14T14:42:08;6.90;99.90
53498;DHT22;39382;47.168;16.008;2023-12-14T14:44:34;6.80;99.90
53498;DHT22;39382;47.168;16.008;2023-12-14T14:47:00;6.70;99.90
53498;DHT22;39382;47.168;16.008;2023-12-14T14:49:25;6.60;99.90
53498;DHT22;39382;47.168;16.008;2023-12-14T14:51:51;6.50;99.90
53498;DHT22;39382;47.168;16.008;2023-12-14T14:54:17;6.50;99.90
53498;DHT22;39382;47.168;16.008;2023-12-14T14:56:43;6.40;99.90
53498;DHT22;39382;47.168;16.008;2023-12-14T14:59:09;6.30;99.90
53498;DHT22;39382;47.168;16.008;2023-12-14T15:01:36;6.20;99.90
53498;DHT22;39382;47.168;16.008;2023-12-14T15:04:02;6.10;99.90
53498;DHT22;39382;47.168;16.008;2023-12-14T15:06:28;5.90;99.90
53498;DHT22;39382;47.168;16.008;2023-12-14T15:08:54;5.90;99.90
53498;DHT22;39382;47.168;16.008;2023-12-14T15:11:19;6.20;99.90
53498;DHT22;39382;47.168;16.008;2023-12-14T15:13:45;6.20;99.90
53498;DHT22;39382;47.168;16.008;2023-12-14T15:16:10;6.00;99.90
53498;DHT22;39382;47.168;16.008;2023-12-14T15:18:37;6.00;99.90
53498;DHT22;39382;47.168;16.008;2023-12-14T15:21:07;6.00;99.90
53498;DHT22;39382;47.168;16.008;2023-12-14T15:23:33;6.00;99.90
53498;DHT22;39382;47.168;16.008;2023-12-14T15:25:59;5.90;99.90